Nearby METAR Reports

 

KSJC - San Jose, California, USA
Distance from station: NE 9mi, 14km
Updated: Sat, 24-Feb-2018 6:53pm CST
Mostly cloudy
Mostly cloudy
 Wind from W
Wind: W 15 mph , 24 km/h
Temperature: 55°F , 13°C
Dew Point: 37°F , 3°C
Humidity: 51%
Barometer: 30.31 inHg , 1026.4 hPa
Clouds: Mostly cloudy
Visibility: 10 miles , 16 km
Cloud details: Few Clouds 2900 ft
Partly cloudy 5000 ft
Mostly cloudy 16000 ft
2018/02/25 00:53 KSJC 250053Z 26013KT 10SM FEW029 SCT050 BKN160 13/03 A3031 RMK AO2 SLP262 T01280033 $
KNUQ - Moffett Nas/Mtn, California, USA
Distance from station: N 9mi, 14km
Updated: Sat, 24-Feb-2018 6:56pm CST
Clear
Clear
 Wind from W
Wind: W 16 mph , 26 km/h, Gust: 24 mph , 39 km/h
Temperature: 54°F , 12°C
Dew Point: 37°F , 3°C
Humidity: 54%
Barometer: 30.31 inHg , 1026.4 hPa
Clouds: Clear
Visibility: 10 miles , 16 km
2018/02/25 00:56 KNUQ 250056Z 28014G21KT 10SM CLR 12/03 A3031 RMK AO2 SLP265 T01220028
 
KPAO - Palo Alto, California, USA
Distance from station: NNW 14mi, 23km
Updated: Sat, 24-Feb-2018 6:47pm CST
Partly cloudy
Partly cloudy
 Wind from WNW
Wind: WNW 23 mph , 37 km/h
Barometer: 30.31 inHg , 1026.4 hPa
Clouds: Partly cloudy
Visibility: 100 miles , 160 km
Cloud details: Partly cloudy 4000 ft
2018/02/25 00:47 KPAO 250047Z 30020KT 100SM SCT040 A3031
KRHV - San Jose/Reid, California, USA
Distance from station: ENE 12mi, 19km
Updated: Sat, 24-Feb-2018 6:47pm CST
Mostly cloudy
Mostly cloudy
 Wind from NNW
Wind: NNW 16 mph , 26 km/h
Temperature: 55°F , 13°C
Dew Point: 41°F , 5°C
Humidity: 59%
Barometer: 30.29 inHg , 1025.7 hPa
Clouds: Mostly cloudy
Visibility: 10 miles , 16 km
Cloud details: Mostly cloudy 5000 ft
2018/02/25 00:47 KRHV 250047Z 34014KT 10SM BKN050 13/05 A3029
 
KOAK - Oakland, California, USA
Distance from station: NNW 31mi, 50km
Updated: Sat, 24-Feb-2018 6:53pm CST
Mostly cloudy
Mostly cloudy
 Wind from WNW
Wind: WNW 23 mph , 37 km/h
Temperature: 54°F , 12°C
Dew Point: 43°F , 6°C
Humidity: 67%
Barometer: 30.30 inHg , 1026.1 hPa
Clouds: Mostly cloudy
Visibility: 10 miles , 16 km
Cloud details: Few Clouds 2000 ft
Partly cloudy 3500 ft
Mostly cloudy 20000 ft
2018/02/25 00:53 KOAK 250053Z 29020KT 10SM FEW020 SCT035 BKN200 12/06 A3030 RMK AO2 PK WND 28026/0038 SLP259 T01170061
KSQL - San Carlos Airpo, California, USA
Distance from station: NW 21mi, 34km
Updated: Sat, 24-Feb-2018 6:50pm CST
Mostly cloudy
Mostly cloudy
 Wind from W
Wind: W 13 mph , 20 km/h, Gust: 17 mph , 28 km/h
Temperature: 54°F , 12°C
Dew Point: 39°F , 4°C
Humidity: 58%
Barometer: 30.32 inHg , 1026.8 hPa
Clouds: Mostly cloudy
Visibility: 10 miles , 16 km
Cloud details: Few Clouds 2000 ft
Partly cloudy 4800 ft
Mostly cloudy 20000 ft
2018/02/25 00:50 KSQL 250050Z 27011G15KT 10SM FEW020 SCT048 BKN200 12/04 A3032
 
KSFO - San Francisco, California, USA
Distance from station: NW 30mi, 49km
Updated: Sat, 24-Feb-2018 6:56pm CST
Mostly cloudy
Mostly cloudy
 Wind from W
Wind: W 24 mph , 39 km/h
Temperature: 54°F , 12°C
Dew Point: 43°F , 6°C
Humidity: 67%
Barometer: 30.31 inHg , 1026.4 hPa
Clouds: Mostly cloudy
Visibility: 10 miles , 16 km
Cloud details: Partly cloudy 1900 ft
Partly cloudy 3300 ft
Mostly cloudy 20000 ft
2018/02/25 00:56 KSFO 250056Z 27021KT 10SM SCT019 SCT033 BKN200 12/06 A3031 RMK AO2 PK WND 28031/0024 SLP263 T01170056 $
KE16 - San Martin, California, USA
Distance from station: ESE 27mi, 43km
Updated: Sat, 24-Feb-2018 7:15pm CST
Mostly cloudy
Mostly cloudy
 Wind from WNW
Wind: WNW 10 mph , 17 km/h
Temperature: 54°F , 12°C
Dew Point: 37°F , 3°C
Humidity: 54%
Barometer: 30.31 inHg , 1026.4 hPa
Clouds: Mostly cloudy
Visibility: 10 miles , 16 km
Cloud details: Few Clouds 4000 ft
Mostly cloudy 4800 ft
Mostly cloudy 6000 ft
2018/02/25 01:15 KE16 250115Z AUTO 30009KT 10SM FEW040 BKN048 BKN060 12/03 A3031 RMK AO2
 
KWVI - Watsonville, California, USA
Distance from station: SSE 27mi, 44km
Updated: Sat, 24-Feb-2018 6:53pm CST
Clear
Clear
 Wind from WSW
Wind: WSW 13 mph , 20 km/h
Temperature: 55°F , 13°C
Dew Point: 39°F , 4°C
Humidity: 55%
Barometer: 30.30 inHg , 1026.1 hPa
Clouds: Clear
Visibility: 10 miles , 16 km
2018/02/25 00:53 KWVI 250053Z AUTO 25011KT 10SM CLR 13/04 A3030 RMK AO2 SLP263 T01280044
KHAF - Half Moon Bay, California, USA
Distance from station: WNW 31mi, 50km
Updated: Sat, 24-Feb-2018 7:15pm CST
Clear
Clear
 Wind from NW
Wind: NW 22 mph , 35 km/h, Gust: 28 mph , 44 km/h
Temperature: 50°F , 10°C
Wind Chill: 43°F , 6°C
Dew Point: 45°F , 7°C
Humidity: 82%
Barometer: 30.29 inHg , 1025.7 hPa
Clouds: Clear
Visibility: 8 miles , 13 km
2018/02/25 01:15 KHAF 250115Z AUTO 32019G24KT 8SM CLR 10/07 A3029 RMK AO2
 
KHWD - Hayward, California, USA
Distance from station: N 28mi, 44km
Updated: Sat, 24-Feb-2018 6:54pm CST
Partly cloudy
Partly cloudy
 Wind from W
Wind: W 18 mph , 30 km/h
Temperature: 54°F , 12°C
Dew Point: 41°F , 5°C
Humidity: 63%
Barometer: 30.29 inHg , 1025.7 hPa
Clouds: Partly cloudy
Visibility: 10 miles , 16 km
Cloud details: Partly cloudy 2000 ft
Partly cloudy 4000 ft
2018/02/25 00:54 KHWD 250054Z 28016KT 10SM SCT020 SCT040 12/05 A3029 RMK AO2 SLP268 T01170050
KLVK - Livermore, California, USA
Distance from station: NNE 31mi, 51km
Updated: Sat, 24-Feb-2018 6:53pm CST
Mostly cloudy
Mostly cloudy
 Wind from W
Wind: W 14 mph , 22 km/h
Temperature: 52°F , 11°C
Dew Point: 43°F , 6°C
Humidity: 72%
Barometer: 30.28 inHg , 1025.4 hPa
Clouds: Mostly cloudy
Visibility: 10 miles , 16 km
Cloud details: Partly cloudy 2800 ft
Mostly cloudy 3800 ft
2018/02/25 00:53 KLVK 250053Z 26012KT 10SM SCT028 BKN038 11/06 A3028 RMK AO2 SLP257 T01110056